Time;durP1;ratioP1;P1;durP2;ratioP2;P2;SDS_P1;SDS_P2;PMS_P1;PMS_P2;Temp;Humidity;BMP_temperature;BMP_pressure;BME280_temperature;BME280_humidity;BME280_pressure;Samples;Min_cycle;Max_cycle;Signal;HPM_P1;HPM_P2
2023/05/10 00:02:22;;;;;;;2.33;2.13;;;;;;;17.04;89.89;95021.53;4954764;28;20618;-92
2023/05/10 00:04:49;;;;;;;5.03;3.50;;;;;;;16.98;90.42;95022.44;4950042;29;20679;-91
2023/05/10 00:07:17;;;;;;;2.17;2.00;;;;;;;16.94;90.12;95010.91;4949673;28;20204;-90
2023/05/10 00:09:46;;;;;;;2.05;1.40;;;;;;;16.95;89.75;95012.50;4949502;28;20252;-91
2023/05/10 00:12:12;;;;;;;1.17;1.08;;;;;;;16.97;91.31;95015.66;4955286;28;20307;-91
2023/05/10 00:14:39;;;;;;;1.15;1.05;;;;;;;16.97;91.11;95007.84;4969005;28;20227;-91
2023/05/10 00:17:24;;;;;;;1.33;1.00;;;;;;;17.05;90.29;95017.13;4949865;28;20213;-91
2023/05/10 00:19:50;;;;;;;2.38;0.93;;;;;;;17.07;89.90;95007.28;4949512;29;20276;-90
2023/05/10 00:22:17;;;;;;;1.27;1.17;;;;;;;16.92;89.42;95011.16;4949859;28;20240;-90
2023/05/10 00:24:43;;;;;;;0.93;0.90;;;;;;;16.85;90.25;95005.28;4951090;28;20204;-91
2023/05/10 00:27:10;;;;;;;2.05;0.90;;;;;;;16.73;91.23;95007.13;4951282;29;20205;-91
2023/05/10 00:30:08;;;;;;;0.90;0.90;;;;;;;16.75;91.56;94992.06;4950095;28;20644;-90
2023/05/10 00:32:35;;;;;;;2.33;1.08;;;;;;;16.68;91.36;95007.03;4949341;28;20212;-89
2023/05/10 00:35:11;;;;;;;2.40;1.08;;;;;;;16.76;90.85;95000.66;4949887;28;20217;-90
2023/05/10 00:37:37;;;;;;;0.85;0.85;;;;;;;16.72;91.33;95004.75;4952580;28;20259;-91
2023/05/10 00:40:04;;;;;;;0.70;0.70;;;;;;;16.67;91.21;95000.25;4953520;28;20235;-90
2023/05/10 00:42:31;;;;;;;0.95;0.95;;;;;;;16.70;91.52;94997.19;4953544;28;20226;-90
2023/05/10 00:44:57;;;;;;;1.30;1.20;;;;;;;16.66;91.12;94998.66;4953784;28;20284;-91
2023/05/10 00:47:24;;;;;;;2.00;1.23;;;;;;;16.72;91.19;94994.38;4953163;28;20213;-90
2023/05/10 00:49:52;;;;;;;1.73;0.90;;;;;;;16.74;90.93;95000.13;4953281;28;20308;-91
2023/05/10 00:52:19;;;;;;;0.93;0.70;;;;;;;16.69;91.12;94989.63;4952711;29;20204;-90
2023/05/10 00:54:46;;;;;;;0.60;0.60;;;;;;;16.72;91.20;94987.34;4957912;28;20220;-90
2023/05/10 00:57:12;;;;;;;0.73;0.73;;;;;;;16.74;91.68;94992.31;4973088;28;20196;-91
2023/05/10 00:59:42;;;;;;;1.00;1.00;;;;;;;16.80;91.69;94991.38;4968386;28;20705;-90
2023/05/10 01:02:10;;;;;;;1.00;1.00;;;;;;;16.82;91.13;94991.97;4959658;28;20227;-91
2023/05/10 01:04:37;;;;;;;0.80;0.80;;;;;;;16.77;90.74;94994.44;4953477;28;20671;-90
2023/05/10 01:07:05;;;;;;;1.92;0.63;;;;;;;16.69;90.43;94989.63;4954089;28;20205;-91
2023/05/10 01:09:32;;;;;;;1.10;0.70;;;;;;;16.71;91.09;94995.38;4964662;28;20223;-90
2023/05/10 01:12:01;;;;;;;1.38;1.10;;;;;;;16.49;90.38;94987.34;4958070;28;20713;-90
2023/05/10 01:14:28;;;;;;;3.58;2.65;;;;;;;16.55;90.83;94989.00;4952794;28;20214;-91
2023/05/10 01:16:54;;;;;;;1.00;1.00;;;;;;;16.48;90.89;94988.38;4953349;28;20197;-90
2023/05/10 01:19:27;;;;;;;0.70;0.70;;;;;;;16.35;91.60;94988.59;4952986;28;20220;-90
2023/05/10 01:22:03;;;;;;;0.63;0.60;;;;;;;16.44;91.52;94980.22;4952003;29;20208;-91
2023/05/10 01:25:26;;;;;;;;;;;;;;;;;;;;;
2023/05/10 01:28:27;;;;;;;0.70;0.70;;;;;;;16.51;91.06;94990.50;4952255;28;20678;-92
2023/05/10 01:31:24;;;;;;;0.77;0.70;;;;;;;16.60;90.57;94989.13;4952460;29;20228;-91
2023/05/10 01:33:56;;;;;;;0.60;0.60;;;;;;;16.63;91.11;94982.69;4941144;28;20209;-91
2023/05/10 01:36:31;;;;;;;0.80;0.80;;;;;;;16.65;90.80;94989.28;4952648;29;20229;-91
2023/05/10 01:39:08;;;;;;;3.05;0.82;;;;;;;16.62;90.61;94986.31;4953091;28;20312;-90
2023/05/10 01:41:42;;;;;;;1.50;0.68;;;;;;;16.64;89.85;94995.50;4952255;29;20200;-91
2023/05/10 01:44:17;;;;;;;0.68;0.60;;;;;;;16.58;89.74;94988.56;4952113;29;20201;-90
2023/05/10 01:46:44;;;;;;;0.60;0.60;;;;;;;16.55;89.66;94989.00;4952613;29;20208;-91
2023/05/10 01:49:23;;;;;;;0.60;0.60;;;;;;;16.55;89.85;94984.59;4951519;28;20229;-91
2023/05/10 01:51:54;;;;;;;1.02;0.70;;;;;;;16.58;89.07;94986.75;4951545;29;20205;-91
2023/05/10 01:54:22;;;;;;;0.98;0.80;;;;;;;16.62;89.01;94991.50;4952569;29;20215;-91
2023/05/10 01:56:55;;;;;;;0.60;0.60;;;;;;;16.57;89.78;94990.38;4952411;28;20205;-90
2023/05/10 01:59:26;;;;;;;0.60;0.60;;;;;;;16.52;89.30;94981.69;4952194;29;20225;-92
2023/05/10 02:02:03;;;;;;;1.25;0.70;;;;;;;16.59;90.48;94993.53;4952326;28;20197;-91
2023/05/10 02:04:34;;;;;;;0.60;0.60;;;;;;;16.61;90.99;94984.72;4959732;28;20260;-90
2023/05/10 02:07:01;;;;;;;0.75;0.60;;;;;;;16.61;90.44;94982.91;4968325;28;20196;-91
2023/05/10 02:09:30;;;;;;;0.88;0.70;;;;;;;16.59;89.60;94987.56;4994913;23;20235;-90
2023/05/10 02:12:00;;;;;;;0.60;0.60;;;;;;;16.49;91.05;94992.53;4988017;28;20202;-91
2023/05/10 02:14:33;;;;;;;0.60;0.60;;;;;;;16.51;90.46;94990.50;4991375;28;20717;-91
2023/05/10 02:17:00;;;;;;;0.70;0.65;;;;;;;16.53;90.85;94991.09;4972139;28;20204;-91
2023/05/10 02:19:29;;;;;;;1.27;0.70;;;;;;;16.48;90.59;94988.38;4970955;28;20220;-91
2023/05/10 02:22:00;;;;;;;0.60;0.60;;;;;;;16.47;90.44;94992.78;4970207;28;20218;-91
2023/05/10 02:24:30;;;;;;;0.90;0.50;;;;;;;16.50;90.37;94989.72;4966574;28;20188;-90
2023/05/10 02:27:10;;;;;;;;;;;;;;;;;;;;;
2023/05/10 02:29:37;;;;;;;2.00;1.00;;;;;;;16.52;90.71;94994.69;4970754;28;20224;-90
2023/05/10 02:32:05;;;;;;;0.73;0.70;;;;;;;16.45;90.61;94992.19;4970041;28;20203;-90
2023/05/10 02:34:33;;;;;;;1.13;0.70;;;;;;;16.36;90.39;94995.34;4970425;28;20834;-90
2023/05/10 02:37:05;;;;;;;1.15;1.02;;;;;;;16.31;90.64;94987.47;4970811;28;20197;-91
2023/05/10 02:39:33;;;;;;;1.75;1.23;;;;;;;16.16;91.42;94999.06;4970146;28;20224;-91
2023/05/10 02:42:04;;;;;;;1.17;0.80;;;;;;;16.14;91.48;94988.16;4955484;28;20201;-91
2023/05/10 02:44:32;;;;;;;0.55;0.55;;;;;;;16.12;92.64;94990.19;4951411;28;20203;-90
2023/05/10 02:46:59;;;;;;;0.50;0.50;;;;;;;16.21;92.12;94999.19;4951080;28;20201;-91
2023/05/10 02:49:26;;;;;;;1.38;0.60;;;;;;;16.27;91.03;95000.13;4951215;28;20591;-90
2023/05/10 02:52:00;;;;;;;0.50;0.50;;;;;;;16.32;90.77;94986.47;4967117;28;20207;-91
2023/05/10 02:54:43;;;;;;;0.60;0.50;;;;;;;16.34;90.81;94987.03;4970353;28;20692;-91
2023/05/10 02:57:15;;;;;;;1.20;0.80;;;;;;;16.35;90.50;94991.22;4970175;28;20701;-90
2023/05/10 02:59:42;;;;;;;0.75;0.65;;;;;;;16.37;90.34;94989.16;4971018;28;20299;-91
2023/05/10 03:02:09;;;;;;;0.70;0.60;;;;;;;16.32;91.20;94995.03;4977455;28;20258;-90
2023/05/10 03:04:36;;;;;;;0.60;0.60;;;;;;;16.22;91.25;95000.00;4970057;28;20204;-91
2023/05/10 03:07:15;;;;;;;0.50;0.50;;;;;;;16.23;91.11;95004.19;4970207;28;20226;-90
2023/05/10 03:09:43;;;;;;;0.70;0.70;;;;;;;16.19;91.74;95009.03;4969546;28;20594;-90
2023/05/10 03:12:16;;;;;;;1.10;0.60;;;;;;;16.21;91.26;95004.41;4969291;28;20216;-90
2023/05/10 03:14:56;;;;;;;0.82;0.70;;;;;;;16.25;91.72;94999.56;4970062;28;20208;-90
2023/05/10 03:17:31;;;;;;;1.20;0.82;;;;;;;16.34;91.55;95000.00;4969988;28;20478;-89
2023/05/10 03:20:03;;;;;;;0.60;0.60;;;;;;;16.32;90.33;95002.84;4969393;28;20254;-90
2023/05/10 03:22:33;;;;;;;0.70;0.70;;;;;;;16.26;91.05;95014.13;4965738;28;20216;-90
2023/05/10 03:25:12;;;;;;;0.80;0.60;;;;;;;16.21;91.24;95006.19;4970079;28;20843;-91
2023/05/10 03:27:42;;;;;;;0.95;0.60;;;;;;;16.16;91.83;95013.91;4969505;28;20208;-91
2023/05/10 03:30:11;;;;;;;0.60;0.60;;;;;;;16.14;92.32;95014.13;4970005;28;20220;-90
2023/05/10 03:32:38;;;;;;;0.95;0.50;;;;;;;16.12;92.47;95016.16;4969450;28;20208;-90
2023/05/10 03:35:07;;;;;;;2.35;0.82;;;;;;;16.19;92.94;95013.44;4969457;28;20204;-90
2023/05/10 03:37:34;;;;;;;0.70;0.60;;;;;;;16.11;92.75;95014.56;4968897;28;20200;-90
2023/05/10 03:40:07;;;;;;;0.50;0.50;;;;;;;16.14;91.83;95016.72;4969586;28;20224;-90
2023/05/10 03:42:33;;;;;;;0.50;0.50;;;;;;;16.13;93.04;95017.75;4969184;28;20658;-91
2023/05/10 03:44:59;;;;;;;0.70;0.70;;;;;;;16.15;92.94;95014.91;4969235;28;20200;-90
2023/05/10 03:47:26;;;;;;;0.60;0.60;;;;;;;16.12;93.28;95017.97;4973799;28;20203;-90
2023/05/10 03:49:52;;;;;;;0.50;0.50;;;;;;;16.16;93.16;95024.28;4978662;28;20223;-91
2023/05/10 03:52:19;;;;;;;0.43;0.43;;;;;;;16.11;93.45;95022.38;4974624;28;20685;-91
2023/05/10 03:54:45;;;;;;;0.60;0.60;;;;;;;16.16;93.71;95025.06;4979045;28;20208;-90
2023/05/10 03:57:13;;;;;;;0.50;0.50;;;;;;;16.07;93.50;95034.19;4981307;28;20728;-91
2023/05/10 03:59:40;;;;;;;0.55;0.55;;;;;;;16.07;93.36;95036.81;4979415;28;20585;-91
2023/05/10 04:02:06;;;;;;;0.82;0.63;;;;;;;16.11;94.12;95035.34;4969458;28;20196;-90
2023/05/10 04:04:39;;;;;;;0.60;0.60;;;;;;;16.05;93.57;95041.41;4969495;28;20207;-89
2023/05/10 04:07:05;;;;;;;0.50;0.40;;;;;;;16.01;94.13;95034.28;4969922;28;20212;-89
2023/05/10 04:09:32;;;;;;;0.70;0.60;;;;;;;16.01;94.30;95042.88;4969474;28;20238;-90
2023/05/10 04:12:00;;;;;;;0.63;0.63;;;;;;;15.94;94.86;95044.81;4967285;28;20227;-88
2023/05/10 04:14:27;;;;;;;0.50;0.50;;;;;;;16.00;95.44;95046.50;4968363;28;20306;-90
2023/05/10 04:16:55;;;;;;;1.48;0.60;;;;;;;16.07;94.61;95043.81;4968828;28;20286;-90
2023/05/10 04:19:21;;;;;;;0.50;0.50;;;;;;;16.07;95.01;95044.59;4968355;28;20227;-89
2023/05/10 04:21:47;;;;;;;0.52;0.40;;;;;;;16.05;94.93;95040.63;4968483;28;20204;-89
2023/05/10 04:24:14;;;;;;;0.70;0.70;;;;;;;16.07;95.49;95039.41;4968673;28;20208;-90
2023/05/10 04:26:41;;;;;;;1.10;0.68;;;;;;;16.12;94.30;95049.13;4969054;28;20206;-90
2023/05/10 04:29:12;;;;;;;0.50;0.50;;;;;;;16.08;94.67;95047.97;4968254;28;20229;-89
2023/05/10 04:31:40;;;;;;;1.05;0.73;;;;;;;16.15;93.56;95051.28;4968518;28;20204;-90
2023/05/10 04:34:09;;;;;;;1.05;0.70;;;;;;;16.14;95.00;95041.91;4966654;28;20694;-89
2023/05/10 04:36:42;;;;;;;0.70;0.70;;;;;;;16.06;94.86;95044.81;4969243;28;20227;-89
2023/05/10 04:39:09;;;;;;;0.63;0.50;;;;;;;16.12;94.05;95042.13;4966639;28;20219;-90
2023/05/10 04:41:46;;;;;;;0.75;0.60;;;;;;;16.06;94.91;95050.00;4969249;28;20325;-90
2023/05/10 04:44:15;;;;;;;0.52;0.50;;;;;;;15.99;96.33;95057.09;4968515;28;20558;-89
2023/05/10 04:46:43;;;;;;;0.88;0.70;;;;;;;15.86;96.27;95056.28;4970316;28;20193;-89
2023/05/10 04:49:09;;;;;;;1.38;0.73;;;;;;;15.74;96.78;95062.47;4967335;28;20595;-89
2023/05/10 04:51:39;;;;;;;0.50;0.50;;;;;;;15.76;96.52;95063.84;4967342;28;20267;-90
2023/05/10 04:54:08;;;;;;;1.15;0.70;;;;;;;15.78;97.10;95059.19;4963928;28;20212;-89
2023/05/10 04:56:35;;;;;;;0.65;0.60;;;;;;;15.75;95.90;95069.25;4969556;28;20216;-90
2023/05/10 04:59:02;;;;;;;0.55;0.50;;;;;;;15.62;95.87;95069.41;4985002;23;20224;-89
2023/05/10 05:01:29;;;;;;;1.40;0.60;;;;;;;15.61;95.99;95076.41;4971169;28;20538;-89
2023/05/10 05:04:00;;;;;;;1.40;0.55;;;;;;;15.46;95.47;95073.38;4969939;28;20697;-90
2023/05/10 05:06:27;;;;;;;0.60;0.60;;;;;;;15.56;95.65;95080.69;4970175;28;20247;-88
2023/05/10 05:08:53;;;;;;;5.68;1.75;;;;;;;15.46;97.63;95081.16;4986369;28;20223;-87
2023/05/10 05:11:23;;;;;;;2.38;0.82;;;;;;;15.48;96.17;95095.50;4989405;28;20196;-88
2023/05/10 05:13:53;;;;;;;10.57;8.25;;;;;;;15.52;96.96;95093.25;4974735;28;20204;-87
2023/05/10 05:16:20;;;;;;;1.55;1.20;;;;;;;15.47;96.18;95093.13;4969619;28;20223;-88
2023/05/10 05:18:46;;;;;;;0.70;0.50;;;;;;;15.43;96.42;95095.34;4970400;28;20235;-88
2023/05/10 05:21:18;;;;;;;0.50;0.50;;;;;;;15.28;98.60;95097.53;4969763;28;20656;-91
2023/05/10 05:27:27;;;;;;;0.60;0.60;;;;;;;15.33;97.61;95100.28;4836739;29;20237;-91
2023/05/10 05:29:55;;;;;;;3.35;3.05;;;;;;;15.34;97.15;95106.25;5011169;23;20232;-91
2023/05/10 05:32:24;;;;;;;2.15;1.95;;;;;;;15.31;97.67;95110.06;5027176;28;20188;-90
2023/05/10 05:34:54;;;;;;;1.05;0.90;;;;;;;15.20;99.95;95106.38;5022936;28;20242;-90
2023/05/10 05:37:22;;;;;;;0.68;0.60;;;;;;;15.29;98.11;95108.69;5011172;28;20223;-89
2023/05/10 05:39:49;;;;;;;1.10;0.68;;;;;;;15.40;97.85;95124.31;5011608;28;20323;-90
2023/05/10 05:42:23;;;;;;;0.98;0.70;;;;;;;15.40;96.61;95119.13;5010794;28;20195;-89
2023/05/10 05:44:49;;;;;;;1.30;0.70;;;;;;;15.29;98.47;95114.69;5016183;28;20202;-92
2023/05/10 05:47:17;;;;;;;0.85;0.50;;;;;;;15.28;98.41;95115.69;4999515;28;20203;-90
2023/05/10 05:49:48;;;;;;;1.15;0.60;;;;;;;15.34;97.09;95120.03;5014901;28;20249;-90
2023/05/10 05:52:18;;;;;;;0.60;0.60;;;;;;;15.34;97.66;95121.81;5022748;28;20263;-90
2023/05/10 05:54:53;;;;;;;0.52;0.52;;;;;;;15.33;97.79;95121.03;5016079;28;20206;-91
2023/05/10 05:57:22;;;;;;;0.82;0.50;;;;;;;15.40;95.48;95121.72;5002843;28;20223;-90
2023/05/10 05:59:51;;;;;;;0.52;0.50;;;;;;;15.45;95.24;95121.09;4994949;28;20689;-90
2023/05/10 06:02:18;;;;;;;0.85;0.60;;;;;;;15.49;96.08;95132.63;5009698;28;20209;-91
2023/05/10 06:04:49;;;;;;;0.60;0.60;;;;;;;15.43;96.63;95136.88;5011479;28;20210;-91
2023/05/10 06:07:18;;;;;;;1.25;0.63;;;;;;;15.47;97.34;95137.22;5001067;28;20700;-91
2023/05/10 06:09:49;;;;;;;0.60;0.60;;;;;;;15.55;96.23;95142.13;5011376;28;20219;-90
2023/05/10 06:12:20;;;;;;;0.95;0.80;;;;;;;15.59;95.90;95142.53;5017346;28;20211;-91
2023/05/10 06:14:48;;;;;;;0.52;0.52;;;;;;;15.64;94.84;95147.84;5007594;28;20230;-93
2023/05/10 06:17:43;;;;;;;1.23;0.80;;;;;;;15.66;95.82;95153.59;5008118;28;20242;-91
2023/05/10 06:20:10;;;;;;;0.82;0.60;;;;;;;15.70;96.30;95159.94;5010208;28;20219;-91
2023/05/10 06:22:40;;;;;;;0.45;0.45;;;;;;;15.71;94.67;95156.34;5008182;28;20202;-91
2023/05/10 06:25:13;;;;;;;2.58;0.80;;;;;;;15.68;96.21;95165.34;5012607;28;20261;-91
2023/05/10 06:27:42;;;;;;;0.70;0.70;;;;;;;15.73;95.38;95169.91;4993259;28;20238;-91
2023/05/10 06:30:28;;;;;;;1.48;1.10;;;;;;;15.75;95.25;95173.88;4999252;28;20282;-91
2023/05/10 06:33:01;;;;;;;1.30;1.20;;;;;;;15.76;96.33;95175.44;5006004;28;20265;-91
2023/05/10 06:35:28;;;;;;;1.00;1.00;;;;;;;15.78;94.47;95175.19;5004592;28;20209;-93
2023/05/10 06:38:27;;;;;;;;;;;;;;;;;;;;;
2023/05/10 06:41:13;;;;;;;0.70;0.57;;;;;;;15.82;93.99;95177.16;5004837;28;20571;-91
2023/05/10 06:43:47;;;;;;;3.92;0.90;;;;;;;15.83;94.58;95185.72;4993380;28;20230;-91
2023/05/10 06:49:22;;;;;;;1.63;1.00;;;;;;;15.90;95.29;95181.25;4993139;28;20894;-92
2023/05/10 06:52:16;;;;;;;1.05;0.98;;;;;;;15.83;95.37;95183.94;4994995;28;20203;-91
2023/05/10 06:55:20;;;;;;;0.98;0.90;;;;;;;15.88;94.89;95186.66;4998252;28;20196;-91
2023/05/10 07:01:16;;;;;;;;;;;;;;;;;;;;;
2023/05/10 07:03:47;;;;;;;0.98;0.98;;;;;;;16.04;92.97;95180.06;5001520;28;20191;-92
2023/05/10 07:15:26;;;;;;;1.67;0.90;;;;;;;16.19;91.64;95190.84;4950135;29;20189;-89
2023/05/10 07:21:25;;;;;;;1.60;1.10;;;;;;;16.33;92.77;95196.69;4891882;29;20214;-90
2023/05/10 07:23:51;;;;;;;1.00;1.00;;;;;;;16.42;90.55;95192.72;4916401;29;20284;-89
2023/05/10 07:26:18;;;;;;;1.00;1.00;;;;;;;16.58;90.85;95196.50;4933635;29;20201;-89
2023/05/10 07:28:46;;;;;;;1.23;1.02;;;;;;;16.57;88.53;95194.91;4915153;29;20550;-89
2023/05/10 07:31:12;;;;;;;1.90;0.85;;;;;;;16.49;88.44;95200.44;4916892;29;20214;-90
2023/05/10 07:33:39;;;;;;;3.05;1.10;;;;;;;16.52;86.35;95197.41;4914255;29;20206;-90
2023/05/10 07:36:06;;;;;;;1.17;0.80;;;;;;;16.57;85.13;95197.50;4918961;29;20691;-90
2023/05/10 07:38:34;;;;;;;2.38;1.00;;;;;;;16.58;85.93;95199.09;4919845;29;20312;-89
2023/05/10 07:42:09;;;;;;;0.80;0.80;;;;;;;16.67;84.55;95186.59;4931772;29;20212;-89
2023/05/10 07:44:51;;;;;;;0.95;0.80;;;;;;;16.92;82.83;95190.59;4864354;29;20291;-90
2023/05/10 07:47:18;;;;;;;0.85;0.85;;;;;;;17.03;83.23;95191.63;4877177;29;20267;-90
2023/05/10 07:49:56;;;;;;;;;;;;;;;;;;;;;
2023/05/10 07:52:28;;;;;;;1.38;0.95;;;;;;;17.16;83.66;95201.00;4881238;29;20214;-90
2023/05/10 07:55:09;;;;;;;1.02;0.85;;;;;;;17.30;84.78;95199.75;4880895;29;20270;-89
2023/05/10 07:57:46;;;;;;;;;;;;;;;;;;;;;
2023/05/10 08:00:45;;;;;;;0.70;0.70;;;;;;;17.51;81.09;95193.94;4926799;29;20284;-91
2023/05/10 08:03:12;;;;;;;1.13;1.00;;;;;;;17.50;81.08;95194.19;4953434;29;20205;-91
2023/05/10 08:05:41;;;;;;;1.02;0.80;;;;;;;17.41;78.98;95201.56;4930412;29;20230;-90
2023/05/10 08:08:10;;;;;;;1.15;0.90;;;;;;;17.31;77.45;95201.34;4918700;29;20194;-90
2023/05/10 08:10:43;;;;;;;0.85;0.85;;;;;;;17.17;77.30;95197.38;4936297;29;20228;-89
2023/05/10 08:13:10;;;;;;;1.00;1.00;;;;;;;17.11;76.85;95206.09;4936025;29;20759;-91
2023/05/10 08:15:36;;;;;;;2.05;0.95;;;;;;;17.13;77.19;95204.03;4936289;29;20273;-90
2023/05/10 08:18:04;;;;;;;1.73;0.98;;;;;;;17.20;78.58;95210.72;4946338;29;20307;-90
2023/05/10 08:20:32;;;;;;;1.42;0.80;;;;;;;17.29;77.99;95198.19;4936745;29;20210;-91
2023/05/10 08:23:25;;;;;;;1.25;0.80;;;;;;;17.16;77.76;95203.59;4931261;29;20788;-89
2023/05/10 08:26:31;;;;;;;1.52;0.75;;;;;;;16.89;78.61;95206.66;4912419;29;20206;-90
2023/05/10 08:29:17;;;;;;;1.35;1.00;;;;;;;16.77;77.33;95208.44;4911120;29;20228;-89
2023/05/10 08:31:45;;;;;;;0.80;0.80;;;;;;;16.77;78.26;95211.03;4913173;29;20224;-90
2023/05/10 08:34:16;;;;;;;0.73;0.73;;;;;;;16.79;78.99;95210.81;4913722;29;20614;-90
2023/05/10 08:36:45;;;;;;;0.70;0.70;;;;;;;16.79;77.84;95213.41;4933211;29;20353;-90
2023/05/10 08:39:11;;;;;;;1.73;1.02;;;;;;;16.86;78.72;95217.50;4962848;28;20229;-89
2023/05/10 08:41:40;;;;;;;1.38;0.80;;;;;;;16.94;78.00;95213.75;4939340;29;20250;-90
2023/05/10 08:44:10;;;;;;;1.13;0.90;;;;;;;16.96;79.08;95216.94;4927054;29;20214;-91
2023/05/10 08:53:27;;;;;;;0.80;0.80;;;;;;;16.68;79.53;95214.97;4893762;29;20266;-90
2023/05/10 08:55:55;;;;;;;1.20;0.98;;;;;;;16.58;79.52;95215.47;4893744;29;20283;-90
2023/05/10 09:01:49;;;;;;;1.60;1.20;;;;;;;16.80;79.58;95215.78;4929910;29;20198;-90
2023/05/10 09:04:15;;;;;;;2.00;0.80;;;;;;;17.26;78.92;95215.03;4932180;29;20201;-90
2023/05/10 09:06:51;;;;;;;1.92;0.80;;;;;;;17.85;76.95;95200.16;4932777;29;20187;-90
2023/05/10 09:09:18;;;;;;;0.77;0.77;;;;;;;18.58;75.69;95199.38;4920111;29;20542;-85
2023/05/10 09:11:45;;;;;;;2.22;0.90;;;;;;;19.08;73.14;95196.00;4928553;29;20238;-85
2023/05/10 09:14:30;;;;;;;1.05;0.88;;;;;;;19.01;71.18;95207.66;4931110;29;20212;-89
2023/05/10 09:16:57;;;;;;;1.70;0.98;;;;;;;18.63;70.16;95206.53;4946992;29;20284;-89
2023/05/10 09:19:23;;;;;;;0.70;0.70;;;;;;;18.37;70.00;95212.31;4947765;28;20225;-89
2023/05/10 09:21:51;;;;;;;0.90;0.90;;;;;;;17.96;68.72;95201.13;4933160;29;20208;-89
2023/05/10 09:24:19;;;;;;;1.98;0.80;;;;;;;17.68;69.81;95199.28;4921654;29;20210;-88
2023/05/10 09:26:50;;;;;;;1.40;0.98;;;;;;;17.69;70.42;95200.88;4914301;29;20210;-88
2023/05/10 09:29:16;;;;;;;1.58;0.77;;;;;;;17.63;69.98;95209.56;4918863;29;20237;-89
2023/05/10 09:31:54;;;;;;;1.70;0.70;;;;;;;17.55;70.51;95212.50;4931773;29;20225;-90
2023/05/10 09:34:32;;;;;;;0.80;0.80;;;;;;;17.54;72.39;95209.13;4955015;29;20371;-89
2023/05/10 09:37:04;;;;;;;1.88;1.00;;;;;;;17.60;73.10;95208.19;4963963;29;20318;-89
2023/05/10 09:39:34;;;;;;;0.80;0.80;;;;;;;17.61;71.40;95211.59;4939358;29;20261;-89
2023/05/10 09:42:03;;;;;;;0.88;0.85;;;;;;;17.65;69.54;95209.38;4948966;29;20201;-90
2023/05/10 09:44:32;;;;;;;1.10;0.70;;;;;;;17.90;68.75;95199.44;4949370;29;20302;-89
2023/05/10 09:47:00;;;;;;;2.45;0.95;;;;;;;17.99;67.39;95198.06;4934013;29;20226;-89
2023/05/10 09:49:26;;;;;;;1.65;0.70;;;;;;;17.86;66.38;95199.13;4924913;29;20252;-89
2023/05/10 09:52:03;;;;;;;1.40;0.90;;;;;;;17.88;68.06;95197.09;4920038;29;20293;-90
2023/05/10 09:54:38;;;;;;;2.35;0.80;;;;;;;17.83;68.36;95198.78;4928786;29;20273;-89
2023/05/10 09:57:05;;;;;;;0.68;0.68;;;;;;;17.87;68.51;95213.72;4933586;29;20566;-88
2023/05/10 10:41:31;;;;;;;1.60;1.30;;;;;;;18.32;63.79;95186.13;5190141;22;20239;-89
2023/05/10 10:44:36;;;;;;;1.00;1.00;;;;;;;18.23;64.44;95188.34;4947554;28;20299;-89
2023/05/10 10:47:11;;;;;;;1.15;1.00;;;;;;;18.08;65.78;95182.88;4966296;28;20907;-89
2023/05/10 10:49:48;;;;;;;0.90;0.90;;;;;;;18.00;66.97;95185.81;4970497;28;20215;-89
2023/05/10 10:52:29;;;;;;;2.47;1.00;;;;;;;17.81;68.70;95180.78;4971710;28;20200;-90
2023/05/10 10:55:01;;;;;;;1.85;1.17;;;;;;;17.84;69.93;95180.34;4978865;28;20259;-91
2023/05/10 10:57:33;;;;;;;3.00;1.13;;;;;;;17.73;71.60;95181.13;4981775;28;20228;-91
2023/05/10 11:00:28;;;;;;;1.30;1.10;;;;;;;17.74;72.39;95187.13;5026690;23;20255;-90
2023/05/10 11:02:58;;;;;;;2.20;1.20;;;;;;;17.67;73.25;95181.28;4989565;28;20271;-90
2023/05/10 11:05:27;;;;;;;3.33;1.05;;;;;;;17.63;73.30;95178.31;4989066;28;20417;-91
2023/05/10 11:07:55;;;;;;;2.30;1.00;;;;;;;17.70;73.94;95180.84;4985096;28;20191;-90
2023/05/10 11:10:28;;;;;;;1.40;0.98;;;;;;;17.77;73.70;95177.06;4967729;28;20224;-90
2023/05/10 11:13:09;;;;;;;3.05;1.10;;;;;;;17.80;73.24;95176.59;4957903;28;20201;-90
2023/05/10 11:15:49;;;;;;;1.63;0.90;;;;;;;17.79;73.07;95184.66;4952452;28;20200;-90
2023/05/10 11:18:20;;;;;;;1.17;1.00;;;;;;;17.72;72.60;95184.75;4933307;29;20225;-90
2023/05/10 11:20:59;;;;;;;0.88;0.88;;;;;;;17.55;72.97;95200.28;4938207;29;20227;-90
2023/05/10 11:24:07;;;;;;;1.60;1.00;;;;;;;17.29;75.38;95200.00;4951066;29;20200;-90
2023/05/10 11:27:06;;;;;;;1.63;0.90;;;;;;;17.02;74.89;95210.84;4956465;28;20291;-89
2023/05/10 11:29:33;;;;;;;1.65;1.25;;;;;;;16.84;75.96;95216.94;4941863;29;20221;-90
2023/05/10 11:32:15;;;;;;;1.77;1.20;;;;;;;16.74;75.47;95227.06;4957934;28;20207;-91
2023/05/10 11:37:23;;;;;;;1.92;1.08;;;;;;;16.68;77.77;95235.78;4958156;29;20209;-91
2023/05/10 11:39:55;;;;;;;3.13;1.30;;;;;;;16.52;80.02;95231.97;4960841;28;20679;-90
2023/05/10 11:45:57;;;;;;;1.45;1.20;;;;;;;16.40;81.59;95238.94;4956194;29;20236;-90
2023/05/10 11:48:25;;;;;;;1.67;1.20;;;;;;;16.39;82.22;95239.16;4963594;28;20634;-90
2023/05/10 11:50:52;;;;;;;2.38;1.50;;;;;;;16.30;82.58;95245.69;4959269;28;20240;-89
2023/05/10 11:53:21;;;;;;;3.08;1.70;;;;;;;16.22;83.23;95244.97;4963772;28;20205;-90
2023/05/10 11:56:03;;;;;;;4.25;3.60;;;;;;;16.13;82.67;95254.09;4964610;28;20541;-90
2023/05/10 11:58:34;;;;;;;1.00;0.90;;;;;;;16.02;84.50;95251.41;4964088;28;20231;-88
2023/05/10 12:01:10;;;;;;;1.00;0.80;;;;;;;16.03;82.95;95250.41;4967022;28;20239;-90
2023/05/10 12:03:44;;;;;;;1.10;1.00;;;;;;;15.95;83.79;95250.72;4953600;28;20232;-89
2023/05/10 12:06:17;;;;;;;1.67;0.95;;;;;;;15.91;84.59;95252.16;4971910;28;20601;-89
2023/05/10 12:08:53;;;;;;;3.65;1.00;;;;;;;15.85;85.03;95256.41;4971886;28;20209;-90
2023/05/10 12:11:29;;;;;;;4.88;1.20;;;;;;;15.79;85.64;95252.06;4938228;29;20209;-89
2023/05/10 12:14:05;;;;;;;1.08;1.00;;;;;;;15.71;85.69;95254.97;4954067;28;20235;-89
2023/05/10 12:16:46;;;;;;;2.80;1.30;;;;;;;15.69;85.97;95260.38;4952443;29;20291;-89
2023/05/10 12:19:20;;;;;;;1.58;1.05;;;;;;;15.65;85.82;95259.22;4952936;29;20220;-90
2023/05/10 12:21:49;;;;;;;1.35;1.00;;;;;;;15.67;84.80;95264.19;4954696;29;20237;-90
2023/05/10 12:27:51;;;;;;;2.53;1.10;;;;;;;15.59;85.87;95273.03;4900729;29;20229;-89
2023/05/10 12:30:22;;;;;;;1.40;1.30;;;;;;;15.63;88.04;95276.00;4881009;29;20219;-90
2023/05/10 13:43:48;;;;;;;1.83;1.00;;;;;;;15.77;85.41;95301.63;5066309;23;20824;-88
2023/05/10 13:46:14;;;;;;;2.08;1.02;;;;;;;15.74;83.83;95299.47;5012600;28;20198;-89
2023/05/10 13:48:41;;;;;;;4.00;1.10;;;;;;;15.70;85.15;95298.31;5010708;28;20291;-87
2023/05/10 13:51:11;;;;;;;1.10;1.00;;;;;;;15.77;85.34;95300.84;4992852;28;20279;-88
2023/05/10 13:53:47;;;;;;;1.83;1.20;;;;;;;15.72;86.92;95292.91;4992856;28;20207;-89
2023/05/10 13:56:25;;;;;;;4.25;1.58;;;;;;;15.82;87.55;95298.38;4992156;28;20203;-88
2023/05/10 13:59:10;;;;;;;1.90;1.40;;;;;;;15.85;87.95;95296.13;4991164;28;20219;-89
2023/05/10 14:01:40;;;;;;;2.45;1.38;;;;;;;15.74;87.44;95296.06;4990298;28;20622;-88
2023/05/10 14:04:18;;;;;;;1.85;1.35;;;;;;;15.74;86.18;95290.88;4995155;28;20677;-89
2023/05/10 14:06:55;;;;;;;2.30;1.30;;;;;;;15.78;86.82;95294.63;5001885;28;20203;-89
2023/05/10 14:09:31;;;;;;;1.42;1.20;;;;;;;15.81;86.24;95294.19;4999929;28;20219;-90
2023/05/10 14:12:06;;;;;;;1.67;1.17;;;;;;;15.86;87.27;95300.31;4990178;28;20214;-89
2023/05/10 14:14:48;;;;;;;1.20;1.10;;;;;;;15.86;86.84;95296.94;4992877;28;20202;-89
2023/05/10 14:21:07;;;;;;;1.17;1.08;;;;;;;15.71;86.32;95299.88;4888403;28;20363;-89
2023/05/10 14:23:33;;;;;;;1.15;1.00;;;;;;;15.53;87.13;95303.22;4947840;28;20204;-89
2023/05/10 14:25:59;;;;;;;2.20;1.10;;;;;;;15.61;88.65;95294.38;4947954;28;20205;-88
2023/05/10 14:28:26;;;;;;;4.72;1.23;;;;;;;15.58;87.26;95291.44;4952104;28;20225;-88
2023/05/10 14:30:57;;;;;;;1.70;1.00;;;;;;;15.61;87.94;95296.19;4990036;28;20581;-89
2023/05/10 14:33:31;;;;;;;1.70;1.00;;;;;;;15.60;86.31;95302.38;4989950;28;20230;-89
2023/05/10 14:36:08;;;;;;;1.67;1.00;;;;;;;15.66;87.86;95302.34;4990403;28;20257;-90
2023/05/10 14:38:39;;;;;;;1.52;1.10;;;;;;;15.61;88.26;95309.16;4990109;28;20226;-89
2023/05/10 14:41:13;;;;;;;1.10;1.00;;;;;;;15.56;88.33;95304.63;4989756;28;20207;-90
2023/05/10 14:43:44;;;;;;;1.42;1.00;;;;;;;15.57;87.54;95305.44;4989779;28;20215;-89
2023/05/10 14:46:16;;;;;;;2.35;1.10;;;;;;;15.52;87.95;95303.44;4990867;28;20266;-89